Boulder City, Nevada Weather observations

Data are for observation ending at time listed.
 Day   Time    Ave.   Ave.  Ave.  Vector   Max.   Stn.    Total    Solar   Ave.  
  of    of     Air    Rel.  Wind   Wind    Wind   Baro.  Precip.   Rad.    Soil  
Year   Day     Temp.  Hum.  Speed  Dir.    Gust   Pres.                    Temp. 
2017   (PST)    F      %     mph   deg.    mph     mb.     in.     W/m2     F   
------------------------------------------------------------------------------
  22   23:00   47.9    75   11.2   183     22.2   925.1    0.00       0    46.5
  22   23:10   48.3    74   13.6   195     22.9   925.0    0.01       0    46.5
  22   23:20   48.3    74   11.8   199     23.8   925.0    0.00       0    46.6
  22   23:30   48.5    72   13.1   221     22.6   924.8    0.00       0    46.6
  22   23:40   48.5    73   14.2   224     26.4   924.7    0.00       0    46.6
  22   23:50   47.9    76   12.9   221     23.2   924.8    0.00       0    46.6
  23    0:00   47.6    78   10.9   218     19.6   924.7    0.00       0    46.6
  23    0:10   48.0    77    8.9   205     16.9   924.6    0.00       0    46.6
  23    0:20   48.1    76    9.9   223     17.5   924.4    0.00       0    46.6
  23    0:30   48.1    76    8.5   224     16.7   924.5    0.00       0    46.6
  23    0:40   47.8    77    8.3   230     14.8   924.4    0.00       0    46.6
  23    0:50   47.4    80    8.1   229     17.4   924.0    0.00       0    46.6
  23    1:00   47.1    81    9.2   232     15.8   923.9    0.00       0    46.6
  23    1:10   47.4    79    8.1   211     15.9   923.8    0.00       0    46.6
  23    1:20   47.9    77    9.8   199     17.4   923.6    0.00       0    46.6
  23    1:30   48.1    76   10.1   198     18.9   923.5    0.00       0    46.7
  23    1:40   48.1    76    9.2   208     15.1   923.6    0.00       0    46.7
  23    1:50   47.6    80    8.2   197     18.4   923.5    0.00       0    46.7
  23    2:00   47.5    80    8.4   202     18.9   923.3    0.00       0    46.7
  23    2:10   47.8    78    8.6   216     15.0   923.1    0.00       0    46.7
  23    2:20   47.9    78    8.4   218     16.4   923.0    0.00       0    46.7
  23    2:30   48.2    77    7.8   199     18.6   922.7    0.00       0    46.8
  23    2:40   48.7    75    8.5   189     17.0   922.5    0.00       0    46.8
  23    2:50   48.5    75   10.0   183     18.9   922.3    0.00       0    46.8
  23    3:00   48.4    75    9.4   182     23.0   922.1    0.00       0    46.8
  23    3:10   48.2    76    8.3   177     18.3   921.9    0.00       0    46.8
  23    3:20   48.5    75   10.3   177     22.1   921.5    0.00       0    46.8
  23    3:30   48.7    75    9.7   175     20.5   921.4    0.00       0    46.8
  23    3:40   48.9    75   12.1   176     24.3   921.3    0.01       0    46.8
  23    3:50   48.7    76   11.3   176     20.9   921.2    0.00       0    46.8
  23    4:00   48.9    75   12.7   174     24.4   921.2    0.00       0    46.8
  23    4:10   48.8    76   11.7   170     23.3   921.4    0.00       0    46.8
  23    4:20   48.5    77   13.0   170     25.8   921.4    0.00       0    46.8
  23    4:30   48.8    76   12.5   169     22.5   921.4    0.00       0    46.8
  23    4:40   48.7    76   12.5   172     27.0   921.5    0.00       0    46.8
  23    4:50   48.6    76   12.4   171     21.2   921.5    0.00       0    46.8
  23    5:00   48.4    76   10.8   178     21.9   921.6    0.00       0    46.8
  23    5:10   48.2    77   10.5   186     17.5   921.8    0.00       0    46.8
  23    5:20   47.5    72   13.6   222     22.1   922.3    0.00       0    46.8
  23    5:30   47.1    70   10.3   214     18.0   922.3    0.00       0    46.8
  23    5:40   46.2    72   11.9   195     20.0   922.2    0.00       0    46.8
  23    5:50   45.2    75    9.1   200     13.8   922.1    0.00       0    46.8
  23    6:00   44.7    76    9.7   199     16.2   921.9    0.00       0    46.7
  23    6:10   44.2    78    7.7   194     13.2   921.9    0.00       0    46.7
  23    6:20   44.1    78    7.9   211     13.2   922.0    0.00       0    46.7
  23    6:30   44.5    75    8.5   207     15.3   921.9    0.00       0    46.7
  23    6:40   44.5    74    8.1   223     13.9   922.2    0.00       0    46.7
  23    6:50   44.7    72   10.2   205     16.4   922.2    0.00       1    46.6
  23    7:00   45.5    68   11.1   193     19.5   922.3    0.00       7    46.6
  23    7:10   45.6    67   12.4   183     22.9   922.4    0.00       7    46.5
  23    7:20   45.5    67   10.4   171     17.7   922.3    0.00      14    46.5
  23    7:30   45.2    68    9.4   182     18.6   922.4    0.00      32    46.4
  23    7:40   44.8    69    7.6   185     12.4   922.7    0.00      83    46.3
  23    7:50   45.7    62    9.9   189     17.2   922.9    0.00      48    46.3
  23    8:00   46.8    59   10.7   195     19.4   922.8    0.00      31    46.2
  23    8:10   47.8    58   11.9   195     21.7   922.9    0.00      77    46.2
  23    8:20   48.9    55   13.3   200     26.2   922.9    0.00     221    46.2
  23    8:30   49.6    48   17.0   206     35.9   923.0    0.00     171    46.1
  23    8:40   49.7    50   15.9   201     29.0   923.2    0.00     130    46.1
  23    8:50   48.8    51   14.9   200     24.1   923.4    0.00      91    46.0
  23    9:00   47.8    50   12.2   208     21.7   923.5    0.00      48    46.0
  23    9:10   47.7    50   13.8   203     26.2   923.5    0.00      51    46.0
  23    9:20   49.0    50   14.9   200     26.5   923.7    0.00     236    46.0
  23    9:30   50.0    50   14.2   210     26.7   924.0    0.00     545    46.1
  23    9:40   49.9    50   13.7   212     22.2   924.0    0.00     293    46.1
  23    9:50   49.7    51   13.5   200     24.5   924.0    0.00     355    46.1
  23   10:00   49.2    52   13.4   199     22.9   924.0    0.00     216    46.2
  23   10:10   50.3    49   14.1   200     22.3   923.9    0.00     519    46.2
  23   10:20   51.1    48   13.9   200     24.3   924.1    0.00     513    46.3
  23   10:30   51.2    47   14.9   198     24.7   924.2    0.00     527    46.3
  23   10:40   51.6    47   14.3   197     22.9   924.0    0.00     552    46.4
  23   10:50   51.9    45   15.1   203     25.5   923.8    0.00     582    46.4
  23   11:00   51.9    44   15.6   197     25.1   923.5    0.00     643    46.5
  23   11:10   51.7    43   13.6   203     24.3   923.4    0.00     250    46.5
  23   11:20   50.9    44   14.0   206     26.3   923.2    0.00     327    46.6
  23   11:30   51.5    43   14.9   201     24.9   922.9    0.00     541    46.8
  23   11:40   52.0    43   12.0   207     20.8   922.7    0.00     435    46.9
  23   11:50   51.3    45   16.6   197     27.2   922.6    0.00     410    47.1
  23   12:00   51.4    46   15.3   194     23.9   922.4    0.00     556    47.2
  23   12:10   51.8    46   17.6   188     29.6   922.3    0.00     583    47.4
  23   12:20   51.7    48   18.3   184     28.8   922.1    0.00     441    47.6
  23   12:30   51.3    46   15.5   198     24.9   921.8    0.00     291    47.7
  23   12:40   51.0    47   12.9   203     26.7   921.6    0.00     309    47.9
  23   12:50   51.3    45   11.7   201     21.7   921.6    0.00     449    48.1
  23   13:00   51.4    46   11.0   199     19.1   921.6    0.00     276    48.3
  23   13:10   51.2    46    9.3   205     18.7   921.4    0.00     315    48.4
  23   13:20   51.2    44    8.4   201     16.1   921.3    0.00     300    48.6
  23   13:30   51.9    43    7.5   192     17.0   921.4    0.00     365    48.7
  23   13:40   52.1    42    9.1   201     17.2   921.5    0.00     410    48.8
  23   13:50   51.8    44    9.1   209     18.8   921.7    0.00     527    48.9
  23   14:00   52.4    44    9.2   206     17.0   921.7    0.00     559    49.0
  23   14:10   52.3    44    8.9   199     18.3   921.6    0.00     400    49.2
  23   14:20   52.0    45   10.9   188     18.9   921.5    0.00     362    49.3
  23   14:30   51.5    43    9.8   202     17.4   921.5    0.00     253    49.4
  23   14:40   51.1    45   10.9   191     17.2   921.4    0.00     343    49.5
  23   14:50   51.3    44    9.4   199     16.6   921.5    0.00     281    49.7
  23   15:00   50.9    44    8.0   212     15.4   921.6    0.00     187    49.7
  23   15:10   49.9    47    8.8   211     16.3   921.6    0.00     119    49.8
  23   15:20   49.3    50    7.5   202     13.5   921.6    0.00     135    49.8
  23   15:30   49.1    50    8.6   187     14.2   921.6    0.00     109    49.8
  23   15:40   48.7    50    9.0   200     14.6   921.5    0.00      86    49.8
  23   15:50   48.4    50    6.9   202     13.3   921.4    0.00      79    49.8
  23   16:00   48.7    49    8.0   178     12.5   921.4    0.00     109    49.8
  23   16:10   48.2    52    9.1   164     15.4   921.4    0.00      56    49.8
  23   16:20   47.5    54    8.7   173     14.1   921.5    0.00      42    49.8
  23   16:30   47.1    54    7.7   186     14.9   921.4    0.00      37    49.7
  23   16:40   46.8    55    7.0   189     12.0   921.2    0.00      23    49.7
  23   16:50   46.5    56    7.1   196     12.0   921.0    0.00      11    49.7
  23   17:00   46.2    56    9.0   186     13.1   920.8    0.00       5    49.6
  23   17:10   45.9    56    7.1   196     12.3   920.6    0.00       0    49.5
  23   17:20   45.8    55    6.5   206     11.2   920.6    0.00       0    49.5
  23   17:30   45.8    55    6.7   202     11.9   920.7    0.00       0    49.4
  23   17:40   45.9    53    8.0   204     13.9   920.6    0.00       0    49.3
  23   17:50   45.9    53    8.6   217     12.7   920.6    0.00       0    49.2
  23   18:00   45.7    54    8.5   215     14.1   920.5    0.00       0    49.2
  23   18:10   45.6    54    8.6   219     15.8   920.6    0.00       0    49.1
  23   18:20   45.2    56    7.5   216     11.8   920.7    0.00       0    49.0
  23   18:30   44.7    59    6.0   204     11.9   920.8    0.00       0    48.9
  23   18:40   44.7    58    6.7   200     11.8   920.8    0.00       0    48.8
  23   18:50   44.7    58    7.6   205     12.9   920.7    0.00       0    48.7
  23   19:00   44.7    58    8.7   209     15.2   920.9    0.00       0    48.6
  23   19:10   44.6    59    7.6   208     13.2   921.0    0.00       0    48.5
  23   19:20   44.5    59    8.0   208     15.3   921.0    0.00       0    48.5
  23   19:30   44.4    60    7.2   206     13.5   921.1    0.00       0    48.4
  23   19:40   44.4    60    5.8   206     10.3   921.1    0.00       0    48.3
  23   19:50   44.2    61    5.7   213     10.2   921.1    0.00       0    48.2
  23   20:00   43.9    63    4.8   201      8.0   921.0    0.00       0    48.2
  23   20:10   43.7    63    6.0   184     10.0   921.2    0.00       0    48.1
  23   20:20   43.3    64    4.8   207      8.2   921.4    0.00       0    48.1
  23   20:30   43.2    63    5.0   218      8.0   921.5    0.00       0    48.0
  23   20:40   43.4    63    3.1   254      7.5   921.9    0.00       0    47.9
  23   20:50   43.6    63    3.6   244      7.9   921.9    0.00       0    47.9
  23   21:00   43.4    64    3.4   236      7.5   921.9    0.00       0    47.8
  23   21:10   43.2    64    3.6   246      7.9   922.0    0.00       0    47.8
  23   21:20   42.7    66    2.4   276      6.8   922.0    0.00       0    47.7
  23   21:30   42.4    67    2.0   309      6.2   922.1    0.00       0    47.7
  23   21:40   42.2    68    2.9   304      8.4   922.2    0.00       0    47.6
  23   21:50   42.0    69    1.9   296      6.1   922.4    0.00       0    47.6
  23   22:00   41.7    70    1.4   281      4.2   922.4    0.00       0    47.5
  23   22:10   41.4    71    2.4   318      8.2   922.4    0.00       0    47.4
  23   22:20   41.2    71    2.5   324      8.3   922.3    0.00       0    47.4
  23   22:30   41.1    70    2.3   334      5.3   922.3    0.00       0    47.3
  23   22:40   41.2    69    1.6   314      5.2   922.3    0.00       0    47.2
  23   22:50   41.1    69    1.0   253      3.3   922.3    0.00       0    47.2

Return to Boulder City, Nevada graphs page.


Western Regional Climate Center,wrcc@dri.edu